Time;durP1;ratioP1;P1;durP2;ratioP2;P2;SDS_P1;SDS_P2;PMS_P1;PMS_P2;Temp;Humidity;BMP_temperature;BMP_pressure;BME280_temperature;BME280_humidity;BME280_pressure;Samples;Min_cycle;Max_cycle;Signal;HPM_P1;HPM_P2
2021/12/22 00:02:01;;;;;;;17.52;9.02;;;;;;;-3.81;100.00;60410.34;5071966;28;20192;-73
2021/12/22 00:04:50;;;;;;;18.17;8.60;;;;;;;-3.77;100.00;60409.56;5071740;28;20659;-74
2021/12/22 00:07:20;;;;;;;14.50;7.25;;;;;;;-3.63;100.00;60424.34;5071376;28;20226;-76
2021/12/22 00:09:50;;;;;;;10.13;5.07;;;;;;;-3.57;100.00;60435.66;5071369;28;20248;-74
2021/12/22 00:12:19;;;;;;;11.52;5.80;;;;;;;-3.65;100.00;60424.72;5071342;28;20234;-75
2021/12/22 00:14:50;;;;;;;12.32;5.85;;;;;;;-3.70;100.00;60426.91;5071553;28;20265;-76
2021/12/22 00:17:17;;;;;;;10.20;5.13;;;;;;;-3.96;100.00;60390.06;5071389;28;20196;-74
2021/12/22 00:19:48;;;;;;;14.50;6.07;;;;;;;-4.00;100.00;60387.81;5071580;28;20200;-73
2021/12/22 00:22:17;;;;;;;16.38;6.68;;;;;;;-3.95;100.00;60388.09;5071436;28;20200;-73
2021/12/22 00:24:44;;;;;;;25.63;9.80;;;;;;;-3.96;100.00;60389.53;5071495;28;20671;-75
2021/12/22 00:27:16;;;;;;;22.10;10.05;;;;;;;-3.89;100.00;60397.44;5071285;28;20196;-75
2021/12/22 00:29:49;;;;;;;35.47;13.90;;;;;;;-4.00;100.00;60388.31;5075120;28;20208;-72
2021/12/22 00:32:17;;;;;;;43.88;17.73;;;;;;;-4.76;100.00;60306.25;5074782;28;20310;-75
2021/12/22 00:34:53;;;;;;;52.83;22.07;;;;;;;-3.88;100.00;60397.97;5075682;28;20223;-75
2021/12/22 00:37:24;;;;;;;48.83;17.90;;;;;;;-5.33;100.00;60246.22;5075152;28;20535;-73
2021/12/22 00:39:52;;;;;;;36.85;17.23;;;;;;;-3.98;100.00;60387.94;5074830;28;20207;-74
2021/12/22 00:42:30;;;;;;;47.38;16.35;;;;;;;-4.23;100.00;60366.03;5073993;28;20594;-74
2021/12/22 00:45:01;;;;;;;40.15;15.73;;;;;;;-5.49;100.00;60234.34;5075082;28;20200;-75
2021/12/22 00:47:30;;;;;;;36.33;15.63;;;;;;;-4.90;100.00;60293.44;5075401;28;20192;-75
2021/12/22 00:50:02;;;;;;;39.38;15.82;;;;;;;-4.43;100.00;60338.56;5075497;28;20200;-74
2021/12/22 00:52:29;;;;;;;43.88;16.75;;;;;;;-4.28;100.00;60358.28;5075670;28;20657;-74
2021/12/22 00:54:57;;;;;;;21.38;9.35;;;;;;;-4.28;100.00;60360.78;5074793;28;20196;-73
2021/12/22 00:57:26;;;;;;;12.85;5.85;;;;;;;-4.17;100.00;60369.88;5074386;28;20197;-73
2021/12/22 00:59:53;;;;;;;7.30;4.15;;;;;;;-4.46;100.00;60340.34;5074399;28;20226;-74
2021/12/22 01:02:21;;;;;;;8.50;4.38;;;;;;;-6.65;100.00;60108.38;5074568;28;20262;-76
2021/12/22 01:04:48;;;;;;;9.30;3.90;;;;;;;-4.64;100.00;60318.91;5074869;28;20201;-73
2021/12/22 01:07:18;;;;;;;7.18;4.10;;;;;;;-4.69;100.00;60316.13;5074182;28;20675;-75
2021/12/22 01:09:45;;;;;;;7.05;4.05;;;;;;;-6.77;100.00;60100.72;5074369;28;20250;-76
2021/12/22 01:12:14;;;;;;;6.38;3.55;;;;;;;-4.85;100.00;60301.22;5074468;28;20201;-74
2021/12/22 01:14:44;;;;;;;7.53;3.88;;;;;;;-5.09;100.00;60276.47;5074376;28;20228;-75
2021/12/22 01:17:15;;;;;;;7.50;3.33;;;;;;;-4.83;100.00;60301.38;5074619;28;20617;-73
2021/12/22 01:19:48;;;;;;;6.55;3.70;;;;;;;-4.91;100.00;60287.97;5074781;28;20200;-73
2021/12/22 01:22:27;;;;;;;8.57;4.05;;;;;;;-4.78;100.00;60304.16;5074441;28;20193;-74
2021/12/22 01:25:02;;;;;;;9.52;3.63;;;;;;;-4.76;100.00;60310.69;5074565;28;20193;-77
2021/12/22 01:27:34;;;;;;;8.82;4.32;;;;;;;-4.87;100.00;60299.63;5074212;28;20283;-73
2021/12/22 01:30:02;;;;;;;5.55;3.30;;;;;;;-5.11;100.00;60276.84;5074411;28;20227;-74
2021/12/22 01:32:29;;;;;;;5.82;3.20;;;;;;;-5.04;100.00;60278.69;5074262;28;20325;-73
2021/12/22 01:34:58;;;;;;;6.07;3.42;;;;;;;-5.04;100.00;60276.75;5074101;28;20227;-72
2021/12/22 01:37:29;;;;;;;6.63;3.40;;;;;;;-5.14;100.00;60266.22;5073841;28;20297;-75
2021/12/22 01:39:56;;;;;;;5.15;3.42;;;;;;;-6.57;100.00;60121.75;5072008;28;20638;-74
2021/12/22 01:42:23;;;;;;;6.18;3.50;;;;;;;-7.00;100.00;60066.66;5074058;28;20211;-74
2021/12/22 01:45:13;;;;;;;14.27;5.95;;;;;;;-6.68;100.00;60110.19;5073679;28;20635;-74
2021/12/22 01:50:35;;;;;;;7.45;3.55;;;;;;;-5.00;100.00;60280.97;5074050;28;20211;-74
2021/12/22 01:53:11;;;;;;;5.43;3.65;;;;;;;-5.00;100.00;60287.88;5073992;28;20234;-72
2021/12/22 01:55:39;;;;;;;6.65;3.75;;;;;;;-5.52;100.00;60221.25;5073678;28;20287;-75
2021/12/22 01:58:09;;;;;;;5.88;3.75;;;;;;;-4.97;100.00;60291.59;5073692;28;20192;-76
2021/12/22 02:00:36;;;;;;;9.65;4.55;;;;;;;-4.88;100.00;60298.56;5074309;28;20684;-74
2021/12/22 02:03:05;;;;;;;6.10;3.65;;;;;;;-4.86;100.00;60300.69;5073999;28;20686;-73
2021/12/22 02:05:33;;;;;;;8.15;4.57;;;;;;;-4.93;100.00;60293.31;5073724;28;20287;-75
2021/12/22 02:08:06;;;;;;;18.23;7.80;;;;;;;-4.84;100.00;60299.78;5078304;28;20211;-73
2021/12/22 02:10:38;;;;;;;16.33;6.78;;;;;;;-4.84;100.00;60297.28;5074421;28;20215;-74
2021/12/22 02:13:06;;;;;;;13.23;6.80;;;;;;;-6.14;100.00;60167.00;5073613;28;20196;-73
2021/12/22 02:15:34;;;;;;;11.05;5.05;;;;;;;-4.84;100.00;60297.28;5073232;28;20460;-73
2021/12/22 02:18:03;;;;;;;9.13;4.50;;;;;;;-4.88;100.00;60293.59;5075074;28;20228;-74
2021/12/22 02:20:33;;;;;;;10.52;4.53;;;;;;;-6.90;100.00;60087.56;5073322;28;20200;-76
2021/12/22 02:23:00;;;;;;;8.48;4.30;;;;;;;-5.04;100.00;60276.75;5073175;28;20675;-74
2021/12/22 02:25:38;;;;;;;8.20;4.03;;;;;;;-5.19;100.00;60263.44;5072910;28;20693;-72
2021/12/22 02:28:14;;;;;;;7.03;3.60;;;;;;;-7.12;100.00;60059.50;5073080;28;20227;-71
2021/12/22 02:30:43;;;;;;;8.35;3.72;;;;;;;-5.04;100.00;60276.75;5072924;28;20240;-76
2021/12/22 02:33:22;;;;;;;7.55;3.35;;;;;;;-5.57;100.00;60223.94;5064790;28;20208;-73
2021/12/22 02:36:09;;;;;;;6.97;3.97;;;;;;;-5.30;100.00;60254.31;5072912;28;20200;-74
2021/12/22 02:38:40;;;;;;;9.23;3.78;;;;;;;-5.25;100.00;60257.13;5072996;28;20219;-73
2021/12/22 02:41:13;;;;;;;4.88;2.88;;;;;;;-5.43;100.00;60235.69;5072747;28;20205;-73
2021/12/22 02:43:49;;;;;;;6.50;3.25;;;;;;;-5.56;100.00;60224.47;5072806;28;20197;-73
2021/12/22 02:46:18;;;;;;;6.65;3.47;;;;;;;-7.01;100.00;60073.53;5072842;28;20570;-74
2021/12/22 02:48:48;;;;;;;7.03;3.75;;;;;;;-7.58;100.00;60016.13;5072887;28;20196;-73
2021/12/22 02:51:18;;;;;;;7.72;3.95;;;;;;;-5.70;100.00;60207.78;5072522;28;20270;-74
2021/12/22 02:53:51;;;;;;;10.07;4.60;;;;;;;-7.52;100.00;60029.31;5072556;28;20228;-73
2021/12/22 02:56:30;;;;;;;8.35;4.35;;;;;;;-5.66;100.00;60216.41;5072540;28;20204;-74
2021/12/22 02:59:15;;;;;;;9.57;4.32;;;;;;;-5.69;100.00;60213.28;5072731;28;20200;-73
2021/12/22 03:04:32;;;;;;;8.82;4.63;;;;;;;-5.61;100.00;60219.22;5071673;28;20588;-76
2021/12/22 03:07:09;;;;;;;9.00;4.82;;;;;;;-7.39;100.00;60036.09;5071317;28;20204;-74
2021/12/22 03:09:40;;;;;;;8.75;4.05;;;;;;;-5.56;100.00;60226.94;5072614;28;20199;-75
2021/12/22 03:12:12;;;;;;;8.20;4.15;;;;;;;-6.44;100.00;60128.00;5068850;28;20196;-74
2021/12/22 03:14:53;;;;;;;9.48;3.53;;;;;;;-5.59;100.00;60219.34;5072133;28;20230;-75
2021/12/22 03:17:23;;;;;;;9.73;4.40;;;;;;;-5.58;100.00;60224.84;5071863;28;20200;-74
2021/12/22 03:19:50;;;;;;;11.88;4.97;;;;;;;-6.88;100.00;60089.16;5072506;28;20196;-73
2021/12/22 03:22:23;;;;;;;8.32;4.32;;;;;;;-5.62;100.00;60215.66;5072112;28;20203;-73
2021/12/22 03:24:51;;;;;;;10.85;4.75;;;;;;;-5.73;100.00;60209.06;5072409;28;20234;-75
2021/12/22 03:27:23;;;;;;;9.27;4.88;;;;;;;-5.78;100.00;60203.78;5071769;28;20192;-74
2021/12/22 03:29:51;;;;;;;8.98;4.25;;;;;;;-7.35;100.00;60034.81;5072236;28;20258;-75
2021/12/22 03:32:21;;;;;;;8.27;4.82;;;;;;;-7.33;100.00;60037.44;5070490;28;20568;-74
2021/12/22 03:34:48;;;;;;;10.13;4.93;;;;;;;-5.81;100.00;60195.69;5071793;28;20239;-74
2021/12/22 03:37:17;;;;;;;8.85;4.70;;;;;;;-5.70;100.00;60209.72;5071837;28;20220;-75
2021/12/22 03:39:50;;;;;;;9.50;4.63;;;;;;;-5.90;100.00;60186.75;5071877;28;20637;-74
2021/12/22 03:42:17;;;;;;;10.75;5.18;;;;;;;-6.10;100.00;60171.19;5071765;28;20211;-73
2021/12/22 03:44:45;;;;;;;12.10;5.20;;;;;;;-7.44;100.00;60025.38;5071768;28;20650;-75
2021/12/22 03:47:14;;;;;;;11.82;4.65;;;;;;;-5.61;100.00;60219.22;5071766;28;20196;-72
2021/12/22 03:49:43;;;;;;;12.88;5.20;;;;;;;-5.80;100.00;60201.69;5071906;28;20200;-76
2021/12/22 03:52:10;;;;;;;11.40;4.65;;;;;;;-5.45;100.00;60238.53;5071836;28;20196;-75
2021/12/22 03:54:37;;;;;;;11.50;4.63;;;;;;;-5.56;100.00;60222.00;5071688;28;20232;-73
2021/12/22 03:57:06;;;;;;;10.65;5.05;;;;;;;-5.54;100.00;60229.06;5071620;28;20219;-75
2021/12/22 03:59:35;;;;;;;14.95;5.80;;;;;;;-5.67;100.00;60213.41;5072468;28;20212;-74
2021/12/22 04:02:04;;;;;;;11.82;5.07;;;;;;;-5.52;100.00;60226.72;5071984;28;20219;-74
2021/12/22 04:04:51;;;;;;;11.60;4.85;;;;;;;-5.43;100.00;60238.16;5070934;28;20637;-74
2021/12/22 04:07:20;;;;;;;18.38;7.90;;;;;;;-5.47;100.00;60233.97;5071905;28;20196;-73
2021/12/22 04:09:52;;;;;;;14.48;6.70;;;;;;;-7.01;100.00;60080.44;5071702;28;20287;-77
2021/12/22 04:12:21;;;;;;;17.08;6.50;;;;;;;-5.76;100.00;60205.91;5071584;28;20200;-73
2021/12/22 04:14:49;;;;;;;11.60;5.85;;;;;;;-5.74;100.00;60205.53;5071264;28;20757;-73
2021/12/22 04:17:19;;;;;;;10.48;4.50;;;;;;;-5.79;100.00;60200.78;5076487;28;20736;-73
2021/12/22 04:19:48;;;;;;;10.25;4.20;;;;;;;-5.89;100.00;60189.75;5073472;28;20207;-74
2021/12/22 04:22:17;;;;;;;8.50;4.43;;;;;;;-5.89;100.00;60187.28;5071434;28;20582;-74
2021/12/22 04:24:48;;;;;;;13.07;5.78;;;;;;;-5.85;100.00;60192.00;5071369;28;20736;-74
2021/12/22 04:27:17;;;;;;;14.35;4.05;;;;;;;-6.06;100.00;60172.41;5070363;28;20200;-74
2021/12/22 04:29:47;;;;;;;14.43;5.95;;;;;;;-6.00;100.00;60175.69;5071513;28;20599;-74
2021/12/22 04:32:14;;;;;;;6.70;3.85;;;;;;;-6.17;100.00;60163.81;5071719;28;20248;-73
2021/12/22 04:34:45;;;;;;;10.85;5.55;;;;;;;-6.29;100.00;60145.72;5071540;28;20694;-73
2021/12/22 04:37:13;;;;;;;14.00;5.90;;;;;;;-7.88;100.00;59979.66;5071472;28;20230;-74
2021/12/22 04:39:41;;;;;;;11.77;5.95;;;;;;;-7.45;100.00;60029.25;5071437;28;20200;-74
2021/12/22 04:42:19;;;;;;;13.30;5.93;;;;;;;-6.25;100.00;60155.41;5070776;28;20225;-74
2021/12/22 04:44:50;;;;;;;13.77;7.07;;;;;;;-6.30;100.00;60147.69;5070823;28;20204;-74
2021/12/22 04:47:17;;;;;;;18.27;6.47;;;;;;;-6.28;100.00;60152.25;5070840;28;20675;-75
2021/12/22 04:49:45;;;;;;;14.93;6.40;;;;;;;-6.30;100.00;60144.66;5071431;28;20219;-75
2021/12/22 04:52:16;;;;;;;14.38;5.32;;;;;;;-6.13;100.00;60167.50;5071359;28;20193;-75
2021/12/22 04:54:50;;;;;;;12.00;5.57;;;;;;;-7.53;100.00;60015.91;5071265;28;20229;-73
2021/12/22 04:57:16;;;;;;;11.57;5.53;;;;;;;-6.14;100.00;60162.03;5071051;28;20227;-74
2021/12/22 04:59:48;;;;;;;14.45;5.50;;;;;;;-6.16;100.00;60154.44;5071353;28;20208;-75
2021/12/22 05:02:18;;;;;;;8.85;5.40;;;;;;;-6.74;100.00;60098.41;5071350;28;20679;-73
2021/12/22 05:04:53;;;;;;;10.68;5.30;;;;;;;-6.01;100.00;60177.13;5071120;28;20682;-73
2021/12/22 05:07:23;;;;;;;11.80;4.95;;;;;;;-7.36;100.00;60033.78;5070993;28;20208;-75
2021/12/22 05:09:52;;;;;;;18.73;5.15;;;;;;;-5.98;100.00;60183.28;5070836;28;20192;-74
2021/12/22 05:12:22;;;;;;;13.80;4.93;;;;;;;-6.22;100.00;60153.09;5071017;28;20633;-74
2021/12/22 05:14:53;;;;;;;15.40;5.05;;;;;;;-5.99;100.00;60179.75;5072253;28;20713;-73
2021/12/22 05:17:27;;;;;;;12.27;4.80;;;;;;;-5.96;100.00;60179.91;5074484;28;20259;-76
2021/12/22 05:19:55;;;;;;;8.13;3.90;;;;;;;-6.12;100.00;60164.13;5074503;28;20247;-75
2021/12/22 05:22:23;;;;;;;8.48;4.20;;;;;;;-8.01;100.00;59966.56;5074276;28;20563;-73
2021/12/22 05:24:50;;;;;;;6.70;3.95;;;;;;;-6.59;100.00;60114.69;5074546;28;20292;-73
2021/12/22 05:27:17;;;;;;;6.95;4.00;;;;;;;-6.20;100.00;60150.22;5074244;28;20197;-74
2021/12/22 05:29:44;;;;;;;7.35;4.80;;;;;;;-6.22;100.00;60153.63;5074253;28;20204;-75
2021/12/22 05:32:11;;;;;;;9.82;4.78;;;;;;;-6.19;100.00;60156.75;5073830;28;20236;-76
2021/12/22 05:34:40;;;;;;;7.72;4.18;;;;;;;-6.16;100.00;60159.94;5072856;28;20220;-75
2021/12/22 05:37:12;;;;;;;8.57;3.97;;;;;;;-6.16;100.00;60164.88;5073827;28;20204;-73
2021/12/22 05:39:43;;;;;;;13.55;4.32;;;;;;;-6.31;100.00;60148.56;5074330;28;20196;-73
2021/12/22 05:42:10;;;;;;;7.28;4.30;;;;;;;-6.28;100.00;60149.25;5074572;28;20250;-75
2021/12/22 05:44:42;;;;;;;8.65;4.32;;;;;;;-6.28;100.00;60147.31;5074142;28;20270;-77
2021/12/22 05:47:10;;;;;;;7.57;4.72;;;;;;;-6.25;100.00;60157.88;5073876;28;20629;-75
2021/12/22 05:49:43;;;;;;;7.28;4.00;;;;;;;-6.11;100.00;60169.59;5073800;28;20658;-73
2021/12/22 05:52:10;;;;;;;8.23;4.13;;;;;;;-6.04;100.00;60176.97;5073828;28;20197;-75
2021/12/22 05:54:38;;;;;;;6.60;3.22;;;;;;;-6.16;100.00;60164.88;5072502;28;20716;-75
2021/12/22 05:57:07;;;;;;;8.05;4.35;;;;;;;-6.05;100.00;60171.50;5073653;28;20254;-73
2021/12/22 05:59:36;;;;;;;20.27;6.18;;;;;;;-7.13;100.00;60057.94;5073820;28;20656;-74
2021/12/22 06:02:06;;;;;;;34.22;11.48;;;;;;;-6.21;100.00;60154.66;5073440;28;20233;-75
2021/12/22 06:04:34;;;;;;;49.15;15.63;;;;;;;-6.16;100.00;60159.41;5073538;28;20189;-72
2021/12/22 06:07:02;;;;;;;63.78;20.00;;;;;;;-6.11;100.00;60169.59;5073506;28;20711;-73
2021/12/22 06:09:36;;;;;;;51.10;21.30;;;;;;;-6.06;100.00;60170.44;5073235;28;20641;-74
2021/12/22 06:12:05;;;;;;;45.38;18.40;;;;;;;-6.33;100.00;60142.03;5072314;28;20197;-76
2021/12/22 06:14:34;;;;;;;46.90;17.23;;;;;;;-5.84;100.00;60192.53;5073451;28;20247;-73
2021/12/22 06:17:10;;;;;;;52.13;20.63;;;;;;;-6.15;100.00;60156.00;5073472;28;20196;-75
2021/12/22 06:19:39;;;;;;;60.33;21.45;;;;;;;-6.19;100.00;60156.75;5072390;28;20200;-74
2021/12/22 06:22:10;;;;;;;52.42;21.20;;;;;;;-6.14;100.00;60167.00;5073853;28;20200;-73
2021/12/22 06:24:37;;;;;;;61.00;20.38;;;;;;;-7.91;100.00;59982.00;5072978;28;20569;-74
2021/12/22 06:27:13;;;;;;;66.38;23.80;;;;;;;-6.15;100.00;60163.44;5082528;28;20215;-72
2021/12/22 06:29:41;;;;;;;62.67;26.25;;;;;;;-6.39;100.00;60143.16;5073704;28;20258;-73
2021/12/22 06:32:10;;;;;;;55.72;24.77;;;;;;;-7.62;100.00;60008.94;5073220;28;20260;-73
2021/12/22 06:34:40;;;;;;;65.35;25.65;;;;;;;-7.22;100.00;60048.47;5072754;28;20587;-72
2021/12/22 06:37:10;;;;;;;70.35;27.48;;;;;;;-6.36;100.00;60138.88;5072565;28;20196;-75
2021/12/22 06:39:57;;;;;;;54.58;24.67;;;;;;;-5.90;100.00;60188.69;5073164;28;20258;-74
2021/12/22 06:42:25;;;;;;;22.75;10.60;;;;;;;-5.71;100.00;60206.22;5072900;28;20265;-75
2021/12/22 06:45:05;;;;;;;13.87;4.47;;;;;;;-5.07;100.00;60278.56;5072541;28;20204;-74
2021/12/22 06:47:33;;;;;;;13.52;5.32;;;;;;;-5.44;100.00;60239.59;5072577;28;20511;-73
2021/12/22 06:50:04;;;;;;;12.32;4.72;;;;;;;-4.99;100.00;60287.00;5072626;28;20668;-75
2021/12/22 06:52:43;;;;;;;8.32;4.45;;;;;;;-2.45;100.00;60550.38;5072695;28;20196;-74
2021/12/22 06:55:15;;;;;;;10.60;4.93;;;;;;;-0.97;100.00;60706.88;5072758;28;20293;-75
2021/12/22 06:57:42;;;;;;;9.03;4.87;;;;;;;-1.12;100.00;60688.50;5072895;28;20442;-73
2021/12/22 07:00:13;;;;;;;8.03;4.47;;;;;;;-0.53;100.00;60754.88;5072506;28;20450;-72
2021/12/22 07:02:43;;;;;;;9.63;4.87;;;;;;;-0.57;100.00;60743.66;5072955;28;20438;-74
2021/12/22 07:05:13;;;;;;;14.50;6.13;;;;;;;-0.05;100.00;60803.22;5072868;28;20968;-74
2021/12/22 07:07:43;;;;;;;14.93;6.63;;;;;;;0.92;100.00;60907.47;5072702;28;20559;-76
2021/12/22 07:10:17;;;;;;;33.97;16.67;;;;;;;1.57;100.00;60976.44;5072431;28;20454;-75
2021/12/22 07:12:46;;;;;;;25.80;9.83;;;;;;;1.94;100.00;61010.69;5072400;28;20457;-74
2021/12/22 07:15:18;;;;;;;17.57;6.80;;;;;;;1.80;100.00;60995.28;5072173;28;21121;-74
2021/12/22 07:17:47;;;;;;;10.43;5.63;;;;;;;1.24;100.00;60941.41;5072470;28;20948;-74
2021/12/22 07:20:15;;;;;;;14.83;6.27;;;;;;;-0.27;100.00;60780.44;5072248;28;20500;-76
2021/12/22 07:22:43;;;;;;;15.03;8.17;;;;;;;0.73;100.00;60883.38;5071894;28;20457;-73
2021/12/22 07:25:14;;;;;;;12.40;5.87;;;;;;;-0.02;100.00;60808.91;5073745;28;20450;-72
2021/12/22 07:27:49;;;;;;;29.47;11.43;;;;;;;-0.83;100.00;60720.63;5071995;28;20579;-76
2021/12/22 07:30:18;;;;;;;19.33;6.57;;;;;;;-1.32;100.00;60666.78;5072570;28;20446;-74
2021/12/22 07:32:47;;;;;;;26.10;8.37;;;;;;;-1.29;100.00;60670.50;5070695;28;20482;-73
2021/12/22 07:35:20;;;;;;;43.73;11.17;;;;;;;-2.69;100.00;60523.56;5071788;28;20478;-72
2021/12/22 07:38:02;;;;;;;34.17;8.17;;;;;;;-0.01;100.00;60799.94;5071404;28;21000;-73
2021/12/22 07:40:31;;;;;;;17.63;6.30;;;;;;;0.62;100.00;60873.69;5070707;28;20845;-75
2021/12/22 07:42:58;;;;;;;16.63;7.30;;;;;;;1.00;100.00;60910.94;5071833;28;20888;-74
2021/12/22 07:45:26;;;;;;;16.00;6.50;;;;;;;1.74;100.00;60989.44;5071895;28;20953;-72
2021/12/22 07:47:53;;;;;;;17.10;7.60;;;;;;;2.10;100.00;61027.66;5072066;28;20507;-73
2021/12/22 07:50:21;;;;;;;32.67;10.10;;;;;;;1.73;100.00;60993.41;5072030;28;20507;-72
2021/12/22 07:52:47;;;;;;;22.40;7.93;;;;;;;1.14;100.00;60925.78;5071935;28;20953;-74
2021/12/22 07:55:15;;;;;;;16.53;7.93;;;;;;;0.33;100.00;60845.97;5072231;28;20486;-75
2021/12/22 07:57:44;;;;;;;13.27;7.43;;;;;;;-0.13;100.00;60797.25;5071223;28;20449;-77
2021/12/22 08:00:12;;;;;;;11.07;6.47;;;;;;;-0.56;100.00;60751.72;5072326;28;20949;-74
2021/12/22 08:02:40;;;;;;;18.07;8.27;;;;;;;-2.32;100.00;60562.13;5071901;28;20442;-73
2021/12/22 08:05:09;;;;;;;25.77;8.70;;;;;;;-0.57;100.00;60745.63;5072153;28;20451;-74
2021/12/22 08:07:38;;;;;;;22.03;10.40;;;;;;;-0.68;100.00;60736.50;5071974;28;20438;-76
2021/12/22 08:10:07;;;;;;;18.53;8.87;;;;;;;-1.33;100.00;60670.75;5071665;28;20478;-72
2021/12/22 08:12:35;;;;;;;23.23;7.57;;;;;;;-0.64;100.00;60743.75;5071341;28;20454;-74
2021/12/22 08:15:04;;;;;;;12.60;6.70;;;;;;;-0.97;100.00;60704.38;5072150;28;20879;-74
2021/12/22 08:17:34;;;;;;;17.43;6.97;;;;;;;-2.88;100.00;60508.50;5071710;28;20448;-76
2021/12/22 08:20:01;;;;;;;16.40;7.40;;;;;;;-2.49;100.00;60543.66;5071500;28;20426;-73
2021/12/22 08:22:28;;;;;;;14.70;7.23;;;;;;;-1.25;100.00;60674.75;5071253;28;20504;-74
2021/12/22 08:24:57;;;;;;;14.07;8.00;;;;;;;-0.81;100.00;60720.22;5071486;28;20450;-74
2021/12/22 08:27:24;;;;;;;16.93;7.33;;;;;;;-0.77;100.00;60725.00;5071472;28;20839;-72
2021/12/22 08:29:53;;;;;;;16.83;7.97;;;;;;;-0.82;100.00;60719.69;5071116;28;20443;-76
2021/12/22 08:32:22;;;;;;;22.50;9.17;;;;;;;-0.71;100.00;60733.84;5070041;28;20488;-76
2021/12/22 08:34:54;;;;;;;18.00;8.63;;;;;;;-0.53;100.00;60749.88;5071821;28;20439;-77
2021/12/22 08:40:14;;;;;;;16.93;8.80;;;;;;;-0.45;100.00;60758.34;5071576;28;20429;-72
2021/12/22 08:42:43;;;;;;;16.93;8.47;;;;;;;-0.27;100.00;60774.91;5071486;28;20508;-74
2021/12/22 08:45:13;;;;;;;20.20;9.67;;;;;;;-0.04;100.00;60807.28;5071353;28;20446;-75
2021/12/22 08:47:43;;;;;;;27.67;9.27;;;;;;;-0.05;100.00;60800.72;5071168;28;20446;-74
2021/12/22 08:50:12;;;;;;;23.40;9.90;;;;;;;-0.13;100.00;60794.72;5072994;28;20563;-74
2021/12/22 08:52:40;;;;;;;26.30;10.80;;;;;;;-1.33;100.00;60668.78;5074976;28;20513;-75
2021/12/22 08:55:08;;;;;;;29.03;11.10;;;;;;;-0.23;100.00;60786.66;5075037;28;20439;-76
2021/12/22 08:57:35;;;;;;;28.20;12.73;;;;;;;-0.79;100.00;60727.34;5075122;28;20449;-76
2021/12/22 09:00:04;;;;;;;22.47;10.17;;;;;;;-1.59;100.00;60643.25;5074903;28;20457;-76
2021/12/22 09:02:31;;;;;;;24.40;11.03;;;;;;;-0.29;100.00;60775.28;5074912;28;20446;-75
2021/12/22 09:05:00;;;;;;;18.97;9.37;;;;;;;-0.28;100.00;60778.84;5074593;28;20430;-74
2021/12/22 09:07:28;;;;;;;22.30;10.07;;;;;;;-0.25;100.00;60784.53;5075802;28;20452;-75
2021/12/22 09:09:55;;;;;;;20.50;8.40;;;;;;;-0.25;100.00;60777.03;5074678;28;20438;-76
2021/12/22 09:12:22;;;;;;;15.40;8.03;;;;;;;-0.33;100.00;60771.06;5073571;28;20446;-76
2021/12/22 09:14:49;;;;;;;17.23;9.73;;;;;;;-1.76;100.00;60635.78;5074277;28;20512;-72
2021/12/22 09:17:17;;;;;;;23.40;9.97;;;;;;;-0.25;100.00;60779.53;5074324;28;20527;-73
2021/12/22 09:19:44;;;;;;;25.57;10.73;;;;;;;-1.30;100.00;60666.94;5074323;28;20952;-74
2021/12/22 09:22:13;;;;;;;22.60;11.93;;;;;;;-0.12;100.00;60793.31;5074750;28;20579;-73
2021/12/22 09:24:40;;;;;;;26.50;11.53;;;;;;;-0.41;100.00;60768.13;5074410;28;20438;-74
2021/12/22 09:27:07;;;;;;;28.37;12.47;;;;;;;-0.31;100.00;60778.16;5074476;28;20446;-75
2021/12/22 09:29:39;;;;;;;23.80;11.47;;;;;;;-1.64;100.00;60638.47;5074359;28;20451;-73
2021/12/22 09:32:07;;;;;;;30.37;14.27;;;;;;;-0.17;100.00;60785.50;5074679;28;20569;-75
2021/12/22 09:34:34;;;;;;;32.70;13.77;;;;;;;-0.82;100.00;60724.19;5074130;28;20952;-74
2021/12/22 09:37:02;;;;;;;21.30;9.70;;;;;;;-0.19;100.00;60790.88;5074245;28;20508;-74
2021/12/22 09:39:31;;;;;;;34.20;14.27;;;;;;;-0.13;100.00;60792.22;5074241;28;20426;-74
2021/12/22 09:41:58;;;;;;;35.43;15.43;;;;;;;-1.45;100.00;60653.06;5073954;28;20872;-75
2021/12/22 09:44:31;;;;;;;31.43;14.47;;;;;;;0.14;100.00;60820.31;5073845;28;20450;-73
2021/12/22 09:46:58;;;;;;;29.03;13.40;;;;;;;-0.50;100.00;60758.56;5073754;28;20999;-73
2021/12/22 09:49:37;;;;;;;35.60;13.77;;;;;;;0.04;100.00;60815.25;5074102;28;20446;-76
2021/12/22 09:52:20;;;;;;;34.80;14.90;;;;;;;0.13;100.00;60824.25;5073793;28;20459;-76
2021/12/22 09:54:51;;;;;;;29.20;12.90;;;;;;;0.44;100.00;60852.63;5074167;28;20492;-74
2021/12/22 09:57:19;;;;;;;26.63;13.00;;;;;;;0.70;100.00;60880.19;5073741;28;21057;-73
2021/12/22 09:59:49;;;;;;;30.03;12.70;;;;;;;0.80;100.00;60893.31;5073893;28;20878;-73
2021/12/22 10:02:17;;;;;;;24.60;11.90;;;;;;;0.90;100.00;60900.88;5072675;28;20516;-75
2021/12/22 10:04:46;;;;;;;23.50;12.07;;;;;;;1.03;100.00;60916.63;5073796;28;20443;-73
2021/12/22 10:07:19;;;;;;;33.83;12.53;;;;;;;0.94;100.00;60910.13;5073307;28;20435;-75
2021/12/22 10:09:49;;;;;;;23.80;12.53;;;;;;;0.84;100.00;60895.03;5073381;28;20448;-75
2021/12/22 10:12:19;;;;;;;30.17;13.60;;;;;;;-0.23;100.00;60781.63;5073602;28;20491;-74
2021/12/22 10:14:52;;;;;;;30.10;12.90;;;;;;;0.36;100.00;60851.66;5073666;28;20443;-74
2021/12/22 10:17:35;;;;;;;22.63;11.50;;;;;;;0.19;100.00;60831.13;5073505;28;21004;-74
2021/12/22 10:20:05;;;;;;;24.20;12.13;;;;;;;-1.10;100.00;60692.56;5073539;28;20482;-74
2021/12/22 10:22:35;;;;;;;21.67;10.77;;;;;;;1.04;100.00;60915.19;5073556;28;20848;-76
2021/12/22 10:25:10;;;;;;;21.43;11.07;;;;;;;1.38;100.00;60951.25;5073416;28;20450;-74
2021/12/22 10:27:47;;;;;;;24.33;11.17;;;;;;;-0.23;100.00;60786.66;5073860;28;20466;-74
2021/12/22 10:30:26;;;;;;;29.13;10.67;;;;;;;1.67;100.00;60982.03;5071820;28;20446;-75
2021/12/22 10:33:08;;;;;;;23.23;9.77;;;;;;;1.82;100.00;60997.94;5073278;28;20481;-76
2021/12/22 10:35:38;;;;;;;19.80;10.57;;;;;;;0.73;100.00;60880.88;5073412;28;20504;-75
2021/12/22 10:38:08;;;;;;;24.20;10.83;;;;;;;2.00;100.00;61021.53;5071873;28;20481;-74
2021/12/22 10:40:38;;;;;;;28.07;11.23;;;;;;;2.21;100.00;61041.31;5071840;28;20468;-76
2021/12/22 10:43:06;;;;;;;26.40;11.30;;;;;;;2.00;100.00;61017.03;5072828;28;20856;-77
2021/12/22 10:45:38;;;;;;;24.27;11.33;;;;;;;2.29;100.00;61052.88;5077055;28;20423;-75
2021/12/22 10:50:54;;;;;;;22.63;11.27;;;;;;;1.07;100.00;60918.88;5074093;28;20940;-73
2021/12/22 10:53:22;;;;;;;22.47;10.63;;;;;;;1.23;100.00;60940.88;5073495;28;21001;-76
2021/12/22 10:55:53;;;;;;;18.20;11.10;;;;;;;1.24;100.00;60936.38;5071165;28;20987;-74
2021/12/22 10:58:26;;;;;;;25.73;11.70;;;;;;;1.28;100.00;60945.66;5072507;28;20439;-74
2021/12/22 11:01:09;;;;;;;20.43;11.57;;;;;;;1.12;100.00;60924.19;5072903;28;20446;-75
2021/12/22 11:03:44;;;;;;;26.60;11.73;;;;;;;1.28;100.00;60940.63;5073188;28;20530;-74
2021/12/22 11:06:14;;;;;;;24.17;11.83;;;;;;;1.27;100.00;60939.59;5072543;28;20832;-74
2021/12/22 11:08:42;;;;;;;29.60;12.70;;;;;;;0.12;100.00;60818.72;5072588;28;20435;-75
2021/12/22 11:11:14;;;;;;;25.83;12.63;;;;;;;1.50;100.00;60963.97;5072588;28;20442;-74
2021/12/22 11:13:43;;;;;;;29.57;12.50;;;;;;;1.45;100.00;60964.22;5072341;28;20504;-74
2021/12/22 11:16:14;;;;;;;27.70;12.20;;;;;;;1.30;100.00;60942.75;5072142;28;20478;-74
2021/12/22 11:18:42;;;;;;;37.50;13.00;;;;;;;0.34;100.00;60846.50;5070950;28;20447;-74
2021/12/22 11:21:12;;;;;;;33.17;12.13;;;;;;;1.50;100.00;60969.00;5072255;28;20442;-76
2021/12/22 11:23:41;;;;;;;33.43;13.40;;;;;;;1.69;100.00;60984.66;5072256;28;20906;-77
2021/12/22 11:26:09;;;;;;;27.80;13.87;;;;;;;1.77;100.00;60992.09;5071743;28;20592;-74
2021/12/22 11:28:38;;;;;;;28.93;14.17;;;;;;;1.62;100.00;60971.69;5070922;28;20435;-75
2021/12/22 11:31:06;;;;;;;28.20;13.90;;;;;;;0.07;100.00;60823.44;5071778;28;20837;-75
2021/12/22 11:33:35;;;;;;;29.77;13.93;;;;;;;1.45;100.00;60958.69;5072069;28;21001;-77
2021/12/22 11:36:03;;;;;;;28.07;13.77;;;;;;;0.29;100.00;60838.69;5071830;28;20468;-76
2021/12/22 11:38:32;;;;;;;31.30;14.77;;;;;;;1.92;100.00;61008.56;5071884;28;20467;-74
2021/12/22 11:41:11;;;;;;;34.23;13.97;;;;;;;2.16;100.00;61034.03;5071922;28;20956;-76
2021/12/22 11:43:44;;;;;;;38.20;15.43;;;;;;;2.13;100.00;61035.88;5071843;28;20446;-75
2021/12/22 11:46:13;;;;;;;28.63;13.97;;;;;;;2.29;100.00;61045.34;5071794;28;20519;-75